createdAt,value
2018-12-14T00:00:05.413Z,28.30
2018-12-14T00:02:32.961Z,33.10
2018-12-14T00:05:00.529Z,29.90
2018-12-14T00:07:27.866Z,29.35
2018-12-14T00:09:55.184Z,28.62
2018-12-14T00:12:22.623Z,29.57
2018-12-14T00:14:49.899Z,33.48
2018-12-14T00:17:17.208Z,31.17
2018-12-14T00:19:44.605Z,30.45
2018-12-14T00:22:23.056Z,31.07
2018-12-14T00:24:50.371Z,31.60
2018-12-14T00:27:19.827Z,32.00
2018-12-14T00:29:47.201Z,30.88
2018-12-14T00:32:15.632Z,29.98
2018-12-14T00:34:42.941Z,33.15
2018-12-14T00:37:10.264Z,30.92
2018-12-14T00:39:37.576Z,28.25
2018-12-14T00:42:05.899Z,30.12
2018-12-14T00:44:33.209Z,38.92
2018-12-14T00:47:00.637Z,29.60
2018-12-14T00:49:27.954Z,30.60
2018-12-14T00:51:55.207Z,28.70
2018-12-14T00:54:22.480Z,28.77
2018-12-14T00:56:49.780Z,35.55
2018-12-14T00:59:19.533Z,28.90
2018-12-14T01:01:46.856Z,30.12
2018-12-14T01:04:14.226Z,34.88
2018-12-14T01:06:41.525Z,30.92
2018-12-14T01:09:08.829Z,35.28
2018-12-14T01:11:36.181Z,32.90
2018-12-14T01:14:03.499Z,28.87
2018-12-14T01:16:30.777Z,29.55
2018-12-14T01:18:58.020Z,30.02
2018-12-14T01:21:25.375Z,30.08
2018-12-14T01:23:52.647Z,29.67
2018-12-14T01:26:20.283Z,31.80
2018-12-14T01:28:57.531Z,30.00
2018-12-14T01:31:25.021Z,31.45
2018-12-14T01:33:52.556Z,33.75
2018-12-14T01:36:20.255Z,35.55
2018-12-14T01:38:47.589Z,32.23
2018-12-14T01:41:14.943Z,34.75
2018-12-14T01:43:42.251Z,28.95
2018-12-14T01:46:16.767Z,29.37
2018-12-14T01:48:44.099Z,28.25
2018-12-14T01:51:12.504Z,29.90
2018-12-14T01:53:39.765Z,27.32
2018-12-14T01:56:07.836Z,30.30
2018-12-14T01:58:35.141Z,35.63
2018-12-14T02:01:02.837Z,32.95
2018-12-14T02:03:30.160Z,35.38
2018-12-14T02:05:57.446Z,33.78
2018-12-14T02:08:24.880Z,35.23
2018-12-14T02:10:52.220Z,34.58
2018-12-14T02:13:19.522Z,33.58
2018-12-14T02:15:46.828Z,33.60
2018-12-14T02:18:22.415Z,33.05
2018-12-14T02:20:50.489Z,32.85
2018-12-14T02:23:17.843Z,31.85
2018-12-14T02:25:45.167Z,34.30
2018-12-14T02:28:12.590Z,32.75
2018-12-14T02:36:23.767Z,29.95
2018-12-14T02:38:51.004Z,31.20
2018-12-14T02:41:24.680Z,33.23
2018-12-14T02:43:52.051Z,30.72
2018-12-14T02:46:19.412Z,29.72
2018-12-14T02:48:46.821Z,32.70
2018-12-14T02:51:14.322Z,33.18
2018-12-14T02:53:41.668Z,33.38
2018-12-14T02:56:08.999Z,31.17
2018-12-14T02:58:36.296Z,28.35
2018-12-14T03:01:03.716Z,29.00
2018-12-14T03:03:35.080Z,33.10
2018-12-14T03:06:02.394Z,37.08
2018-12-14T03:08:29.676Z,28.60
2018-12-14T03:10:56.997Z,30.62
2018-12-14T03:13:24.304Z,32.75
2018-12-14T03:15:51.607Z,30.97
2018-12-14T03:18:19.888Z,33.80
2018-12-14T03:20:47.289Z,31.65
2018-12-14T03:23:14.609Z,35.33
2018-12-14T03:25:42.049Z,30.60
2018-12-14T03:28:09.509Z,31.27
2018-12-14T03:30:36.807Z,28.83
2018-12-14T03:33:04.186Z,33.33
2018-12-14T03:35:31.480Z,34.03
2018-12-14T03:38:04.249Z,32.15
2018-12-14T03:40:31.549Z,32.85
2018-12-14T03:42:58.909Z,31.50
2018-12-14T03:45:26.415Z,34.27
2018-12-14T03:47:53.717Z,34.25
2018-12-14T03:50:21.033Z,32.13
2018-12-14T03:52:52.353Z,37.35
2018-12-14T03:55:19.694Z,34.60
2018-12-14T03:57:47.051Z,34.53
2018-12-14T04:00:14.364Z,32.28
2018-12-14T04:02:41.696Z,31.07
2018-12-14T04:05:09.989Z,32.75
2018-12-14T04:07:37.249Z,33.00
2018-12-14T04:10:05.289Z,33.15
2018-12-14T04:12:32.898Z,31.07
2018-12-14T04:15:00.299Z,29.60
2018-12-14T04:17:27.601Z,32.25
2018-12-14T04:19:54.953Z,28.23
2018-12-14T04:22:22.262Z,29.85
2018-12-14T04:25:00.080Z,32.23
2018-12-14T04:27:27.486Z,30.27
2018-12-14T04:32:46.488Z,30.50
2018-12-14T04:35:13.801Z,30.25
2018-12-14T04:37:41.164Z,28.95
2018-12-14T04:40:08.604Z,31.73
2018-12-14T04:42:36.216Z,33.63
2018-12-14T04:45:03.950Z,32.17
2018-12-14T04:47:31.254Z,30.85
2018-12-14T04:49:58.569Z,34.13
2018-12-14T04:52:26.076Z,31.68
2018-12-14T04:54:53.466Z,31.23
2018-12-14T04:57:20.865Z,33.00
2018-12-14T04:59:48.144Z,36.68
2018-12-14T05:05:01.328Z,30.23
2018-12-14T05:07:28.713Z,31.45
2018-12-14T05:09:56.044Z,30.25
2018-12-14T05:12:23.354Z,31.40
2018-12-14T05:14:50.913Z,35.83
2018-12-14T05:17:18.262Z,30.50
2018-12-14T05:19:45.583Z,29.67
2018-12-14T05:22:12.903Z,34.03
2018-12-14T05:24:41.236Z,32.78
2018-12-14T05:27:08.744Z,30.62
2018-12-14T05:29:36.313Z,31.30
2018-12-14T05:37:40.122Z,28.75
2018-12-14T05:40:07.503Z,29.85
2018-12-14T05:42:34.836Z,29.52
2018-12-14T05:45:02.174Z,26.93
2018-12-14T05:47:29.535Z,29.95
2018-12-14T05:49:56.955Z,28.95
2018-12-14T05:52:24.977Z,28.25
2018-12-14T05:54:52.309Z,29.55
2018-12-14T05:57:25.516Z,29.42
2018-12-14T05:59:53.776Z,26.77
2018-12-14T06:02:21.310Z,26.25
2018-12-14T06:04:48.733Z,30.88
2018-12-14T06:07:16.072Z,30.17
2018-12-14T06:12:09.094Z,28.67
2018-12-14T06:14:37.092Z,26.30
2018-12-14T06:22:42.962Z,21.97
2018-12-14T06:25:10.378Z,29.32
2018-12-14T06:27:37.753Z,30.10
2018-12-14T06:30:05.380Z,25.95
2018-12-14T06:32:40.215Z,27.60
2018-12-14T06:35:07.664Z,29.07
2018-12-14T06:37:35.018Z,29.12
2018-12-14T06:40:02.444Z,29.12
2018-12-14T06:42:29.743Z,25.72
2018-12-14T06:44:57.451Z,27.10
2018-12-14T06:50:10.485Z,27.13
2018-12-14T06:52:37.972Z,28.12
2018-12-14T06:55:05.812Z,27.35
2018-12-14T06:57:39.916Z,29.45
2018-12-14T07:00:07.389Z,33.13
2018-12-14T07:02:45.092Z,27.98
2018-12-14T07:05:13.348Z,28.07
2018-12-14T07:07:40.643Z,27.80
2018-12-14T07:10:07.964Z,28.02
2018-12-14T07:12:35.324Z,28.17
2018-12-14T07:15:02.949Z,31.73
2018-12-14T07:17:46.425Z,30.45
2018-12-14T07:20:13.840Z,29.40
2018-12-14T07:22:41.458Z,27.60
2018-12-14T07:25:08.974Z,32.08
2018-12-14T07:27:37.321Z,33.35
2018-12-14T07:30:04.619Z,34.40
2018-12-14T07:32:31.932Z,30.85
2018-12-14T07:34:59.231Z,28.83
2018-12-14T07:37:26.553Z,31.33
2018-12-14T07:39:55.408Z,29.00
2018-12-14T07:42:22.733Z,29.07
2018-12-14T07:44:50.493Z,32.30
2018-12-14T07:47:35.810Z,29.48
2018-12-14T07:50:03.360Z,28.67
2018-12-14T07:52:30.786Z,30.12
2018-12-14T07:54:58.070Z,32.33
2018-12-14T07:57:25.434Z,27.32
2018-12-14T07:59:52.728Z,32.08
2018-12-14T08:02:23.316Z,35.25
2018-12-14T08:04:50.752Z,30.25
2018-12-14T08:07:18.191Z,30.25
2018-12-14T08:09:45.500Z,29.75
2018-12-14T08:12:12.837Z,34.83
2018-12-14T08:14:40.136Z,31.25
2018-12-14T08:17:11.364Z,34.67
2018-12-14T08:19:38.604Z,35.08
2018-12-14T08:22:05.999Z,32.73
2018-12-14T08:24:33.324Z,32.33
2018-12-14T08:27:00.640Z,27.48
2018-12-14T08:29:28.037Z,29.75
2018-12-14T08:31:55.369Z,32.95
2018-12-14T08:39:56.728Z,32.67
2018-12-14T08:42:24.068Z,29.40
2018-12-14T08:44:51.458Z,34.67
2018-12-14T08:47:20.938Z,31.62
2018-12-14T08:49:48.268Z,30.70
2018-12-14T08:52:15.548Z,33.67
2018-12-14T08:54:46.304Z,32.20
2018-12-14T08:57:13.560Z,29.32
2018-12-14T08:59:40.860Z,31.85
2018-12-14T09:02:08.272Z,28.15
2018-12-14T09:07:24.550Z,29.57
2018-12-14T09:09:50.320Z,29.60
2018-12-14T09:12:17.643Z,29.02
2018-12-14T09:14:44.936Z,29.27
2018-12-14T09:17:12.241Z,25.50
2018-12-14T09:19:39.987Z,25.10
2018-12-14T09:22:07.307Z,26.42
2018-12-14T09:24:34.568Z,27.73
2018-12-14T09:27:03.029Z,29.07
2018-12-14T09:29:30.368Z,26.25
2018-12-14T09:31:59.232Z,26.95
2018-12-14T09:34:26.635Z,28.32
2018-12-14T09:36:53.963Z,26.23
2018-12-14T09:44:58.345Z,28.52
2018-12-14T09:47:25.679Z,26.15
2018-12-14T09:49:53.050Z,29.80
2018-12-14T09:52:26.900Z,27.45
2018-12-14T09:54:59.427Z,25.27
2018-12-14T09:57:26.812Z,27.02
2018-12-14T09:59:54.256Z,26.00
2018-12-14T10:02:21.655Z,26.95
2018-12-14T10:04:49.228Z,26.10
2018-12-14T10:07:16.681Z,29.55
2018-12-14T10:09:58.348Z,23.75
2018-12-14T10:12:26.401Z,26.27
2018-12-14T10:14:53.737Z,26.42
2018-12-14T10:17:21.618Z,26.65
2018-12-14T10:19:53.188Z,22.95
2018-12-14T10:22:20.556Z,27.70
2018-12-14T10:24:52.070Z,28.35
2018-12-14T10:27:19.400Z,26.80
2018-12-14T10:30:00.604Z,26.45
2018-12-14T10:32:28.671Z,24.43
2018-12-14T10:34:59.595Z,23.98
2018-12-14T10:37:26.899Z,23.22
2018-12-14T10:39:54.307Z,29.27
2018-12-14T10:42:21.631Z,25.82
2018-12-14T10:44:54.948Z,26.95
2018-12-14T10:47:22.405Z,31.42
2018-12-14T10:49:49.874Z,24.00
2018-12-14T10:52:17.604Z,28.30
2018-12-14T10:54:45.083Z,24.77
2018-12-14T10:57:16.334Z,27.67
2018-12-14T10:59:43.906Z,28.77
2018-12-14T11:02:11.264Z,27.15
2018-12-14T11:04:38.617Z,24.02
2018-12-14T11:07:11.224Z,25.12
2018-12-14T11:09:38.551Z,25.80
2018-12-14T11:12:06.657Z,29.02
2018-12-14T11:14:34.637Z,29.23
2018-12-14T11:17:01.990Z,24.27
2018-12-14T11:19:29.388Z,27.20
2018-12-14T11:21:56.757Z,21.75
2018-12-14T11:24:27.520Z,27.87
2018-12-14T11:26:54.829Z,24.85
2018-12-14T11:29:22.178Z,27.70
2018-12-14T11:31:49.617Z,23.12
2018-12-14T11:34:16.985Z,24.67
2018-12-14T11:36:44.392Z,24.02
2018-12-14T11:39:11.791Z,24.60
2018-12-14T11:47:18.188Z,29.42
2018-12-14T11:49:43.156Z,26.25
2018-12-14T11:52:18.653Z,26.37
2018-12-14T11:54:46.071Z,27.75
2018-12-14T11:57:14.090Z,27.27
2018-12-14T11:59:41.384Z,25.77
2018-12-14T12:02:08.988Z,23.57
2018-12-14T12:04:36.508Z,26.27
2018-12-14T12:07:03.841Z,25.23
2018-12-14T12:09:31.167Z,27.10
2018-12-14T12:12:10.544Z,25.60
2018-12-14T12:14:37.904Z,24.27
2018-12-14T12:17:05.513Z,23.87
2018-12-14T12:19:32.865Z,22.70
2018-12-14T12:22:00.253Z,24.55
2018-12-14T12:24:27.626Z,23.02
2018-12-14T12:26:55.055Z,24.90
2018-12-14T12:29:23.080Z,26.80
2018-12-14T12:31:57.888Z,22.60
2018-12-14T12:34:25.222Z,23.40
2018-12-14T12:36:56.604Z,26.10
2018-12-14T12:39:23.923Z,29.92
2018-12-14T12:41:51.217Z,24.87
2018-12-14T12:44:19.063Z,25.65
2018-12-14T12:52:28.747Z,25.88
2018-12-14T12:54:56.624Z,25.85
2018-12-14T12:57:23.914Z,25.77
2018-12-14T12:59:51.330Z,27.27
2018-12-14T13:02:18.659Z,33.20
2018-12-14T13:04:46.317Z,28.90
2018-12-14T13:07:13.726Z,26.10
2018-12-14T13:09:41.214Z,26.12
2018-12-14T13:12:08.577Z,28.80
2018-12-14T13:14:40.005Z,24.00
2018-12-14T13:17:08.624Z,25.35
2018-12-14T13:19:35.978Z,27.80
2018-12-14T13:22:03.301Z,22.52
2018-12-14T13:24:30.588Z,24.85
2018-12-14T13:26:59.060Z,24.35
2018-12-14T13:32:17.357Z,22.27
2018-12-14T13:34:48.522Z,23.12
2018-12-14T13:37:16.208Z,26.37
2018-12-14T13:39:47.826Z,26.35
2018-12-14T13:42:15.285Z,23.45
2018-12-14T13:44:46.526Z,25.43
2018-12-14T13:47:12.185Z,27.90
2018-12-14T13:49:39.518Z,25.60
2018-12-14T13:52:06.839Z,24.07
2018-12-14T13:54:40.835Z,24.75
2018-12-14T13:57:08.251Z,27.02
2018-12-14T13:59:35.534Z,24.43
2018-12-14T14:02:03.977Z,25.30
2018-12-14T14:07:18.766Z,25.70
2018-12-14T14:09:46.086Z,22.87
2018-12-14T14:12:13.380Z,24.63
2018-12-14T14:14:40.701Z,25.23
2018-12-14T14:17:08.140Z,25.17
2018-12-14T14:19:35.677Z,28.87
2018-12-14T14:22:03.098Z,26.45
2018-12-14T14:24:31.477Z,25.40
2018-12-14T14:26:58.765Z,28.40
2018-12-14T14:29:26.218Z,24.27
2018-12-14T14:31:53.603Z,24.85
2018-12-14T14:34:25.447Z,22.62
2018-12-14T14:36:52.752Z,25.12
2018-12-14T14:39:20.431Z,24.67
2018-12-14T14:41:47.929Z,27.32
2018-12-14T14:44:15.292Z,24.72
2018-12-14T14:46:43.234Z,26.55
2018-12-14T14:49:10.599Z,23.83
2018-12-14T14:51:39.720Z,25.32
2018-12-14T14:54:07.107Z,24.85
2018-12-14T14:56:40.150Z,26.97
2018-12-14T14:59:07.479Z,22.32
2018-12-14T15:01:35.417Z,23.83
2018-12-14T15:04:03.819Z,23.25
2018-12-14T15:09:23.301Z,26.37
2018-12-14T15:11:57.349Z,25.52
2018-12-14T15:14:27.637Z,22.55
2018-12-14T15:16:54.944Z,22.25
2018-12-14T15:19:22.597Z,23.67
2018-12-14T15:21:50.169Z,22.95
2018-12-14T15:24:17.507Z,22.62
2018-12-14T15:26:44.818Z,24.85
2018-12-14T15:29:12.256Z,23.52
2018-12-14T15:31:40.201Z,24.05
2018-12-14T15:34:14.178Z,25.97
2018-12-14T15:39:25.886Z,24.27
2018-12-14T15:41:53.390Z,24.85
2018-12-14T15:44:20.737Z,26.82
2018-12-14T15:46:48.231Z,24.30
2018-12-14T15:49:15.529Z,25.62
2018-12-14T15:51:42.948Z,25.23
2018-12-14T15:54:10.273Z,24.05
2018-12-14T15:56:37.603Z,24.02
2018-12-14T15:59:04.922Z,24.05
2018-12-14T16:01:32.233Z,27.87
2018-12-14T16:03:59.693Z,25.57
2018-12-14T16:06:28.098Z,26.70
2018-12-14T16:08:55.646Z,25.95
2018-12-14T16:11:23.021Z,22.10
2018-12-14T16:13:50.437Z,28.23
2018-12-14T16:16:17.773Z,25.35
2018-12-14T16:18:45.229Z,22.75
2018-12-14T16:21:12.572Z,26.95
2018-12-14T16:23:52.593Z,24.18
2018-12-14T16:26:19.901Z,22.90
2018-12-14T16:28:47.333Z,26.62
2018-12-14T16:31:15.729Z,22.25
2018-12-14T16:33:43.086Z,25.25
2018-12-14T16:38:56.544Z,24.90
2018-12-14T16:41:23.905Z,24.72
2018-12-14T16:43:51.321Z,24.20
2018-12-14T16:46:18.666Z,24.20
2018-12-14T16:48:46.370Z,25.48
2018-12-14T16:51:14.717Z,23.80
2018-12-14T16:53:47.684Z,24.05
2018-12-14T16:56:15.374Z,23.22
2018-12-14T16:58:47.299Z,28.90
2018-12-14T17:01:14.698Z,25.37
2018-12-14T17:03:42.056Z,27.05
2018-12-14T17:06:09.428Z,26.62
2018-12-14T17:08:37.825Z,24.32
2018-12-14T17:11:12.283Z,23.52
2018-12-14T17:13:40.808Z,27.27
2018-12-14T17:16:08.239Z,25.30
2018-12-14T17:18:37.591Z,24.65
2018-12-14T17:21:05.036Z,23.62
2018-12-14T17:23:34.342Z,23.12
2018-12-14T17:26:02.635Z,25.17
2018-12-14T17:28:30.045Z,25.12
2018-12-14T17:30:57.525Z,24.37
2018-12-14T17:33:24.909Z,29.77
2018-12-14T17:35:52.310Z,24.43
2018-12-14T17:38:34.312Z,23.62
2018-12-14T17:41:01.687Z,24.20
2018-12-14T17:43:29.094Z,25.02
2018-12-14T17:45:56.971Z,27.70
2018-12-14T17:48:27.646Z,27.42
2018-12-14T17:50:54.977Z,28.85
2018-12-14T17:53:22.450Z,24.10
2018-12-14T17:55:54.338Z,24.57
2018-12-14T17:58:21.711Z,25.10
2018-12-14T18:00:49.697Z,30.45
2018-12-14T18:03:17.127Z,24.10
2018-12-14T18:05:44.683Z,26.33
2018-12-14T18:08:12.732Z,26.75
2018-12-14T18:10:48.249Z,28.65
2018-12-14T18:13:15.665Z,25.43
2018-12-14T18:15:46.362Z,27.50
2018-12-14T18:18:13.412Z,25.70
2018-12-14T18:20:40.797Z,27.30
2018-12-14T18:23:08.188Z,25.62
2018-12-14T18:25:35.564Z,28.65
2018-12-14T18:28:06.620Z,28.57
2018-12-14T18:30:34.580Z,24.65
2018-12-14T18:33:02.063Z,28.23
2018-12-14T18:35:29.859Z,26.68
2018-12-14T18:40:46.571Z,28.92
2018-12-14T18:43:13.968Z,27.55
2018-12-14T18:45:41.381Z,26.25
2018-12-14T18:48:09.069Z,26.15
2018-12-14T18:50:36.506Z,27.27
2018-12-14T18:53:04.226Z,29.90
2018-12-14T18:55:31.580Z,27.85
2018-12-14T18:58:05.400Z,27.98
2018-12-14T19:00:33.747Z,28.40
2018-12-14T19:03:01.129Z,28.77
2018-12-14T19:05:28.480Z,24.82
2018-12-14T19:10:42.918Z,32.65
2018-12-14T19:13:11.414Z,29.85
2018-12-14T19:15:39.651Z,26.55
2018-12-14T19:18:08.180Z,26.62
2018-12-14T19:20:40.660Z,27.17
2018-12-14T19:23:08.088Z,28.52
2018-12-14T19:25:35.470Z,30.40
2018-12-14T19:28:03.844Z,30.80
2018-12-14T19:30:31.456Z,29.15
2018-12-14T19:33:00.956Z,28.00
2018-12-14T19:35:28.530Z,29.02
2018-12-14T19:40:47.453Z,27.60
2018-12-14T19:43:16.908Z,31.62
2018-12-14T19:45:44.771Z,27.22
2018-12-14T19:48:12.223Z,28.70
2018-12-14T19:50:39.561Z,26.45
2018-12-14T19:53:07.190Z,30.27
2018-12-14T19:55:34.598Z,32.20
2018-12-14T19:58:03.416Z,36.30
2018-12-14T20:00:43.793Z,29.55
2018-12-14T20:03:13.252Z,29.02
2018-12-14T20:08:17.250Z,29.50
2018-12-14T20:10:44.856Z,33.50
2018-12-14T20:13:17.631Z,32.45
2018-12-14T20:15:45.198Z,27.52
2018-12-14T20:18:16.530Z,32.60
2018-12-14T20:20:43.879Z,33.78
2018-12-14T20:23:11.764Z,28.90
2018-12-14T20:25:39.128Z,29.60
2018-12-14T20:28:06.534Z,31.37
2018-12-14T20:30:33.861Z,30.77
2018-12-14T20:33:01.302Z,32.00
2018-12-14T20:35:28.883Z,29.15
2018-12-14T20:37:56.781Z,30.30
2018-12-14T20:40:24.150Z,34.65
2018-12-14T20:42:51.483Z,31.20
2018-12-14T20:45:18.957Z,27.55
2018-12-14T20:47:46.277Z,34.92
2018-12-14T20:50:13.698Z,32.90
2018-12-14T20:52:50.752Z,31.97
2018-12-14T20:55:18.144Z,28.95
2018-12-14T20:57:45.468Z,32.80
2018-12-14T21:00:13.045Z,29.92
2018-12-14T21:02:43.378Z,27.98
2018-12-14T21:05:10.775Z,32.75
2018-12-14T21:07:38.172Z,32.98
2018-12-14T21:10:06.278Z,30.82
2018-12-14T21:12:33.665Z,28.77
2018-12-14T21:15:01.001Z,28.23
2018-12-14T21:17:28.433Z,27.67
2018-12-14T21:19:55.778Z,32.55
2018-12-14T21:22:23.153Z,30.23
2018-12-14T21:24:54.845Z,32.38
2018-12-14T21:27:22.834Z,30.57
2018-12-14T21:29:50.211Z,29.70
2018-12-14T21:32:17.618Z,29.37
2018-12-14T21:34:44.972Z,31.82
2018-12-14T21:37:12.336Z,28.98
2018-12-14T21:39:41.741Z,29.37
2018-12-14T21:42:10.078Z,29.27
2018-12-14T21:44:37.504Z,29.85
2018-12-14T21:47:04.900Z,28.40
2018-12-14T21:49:33.171Z,31.40
2018-12-14T21:54:55.598Z,34.92
2018-12-14T21:57:23.049Z,31.12
2018-12-14T21:59:50.539Z,33.25
2018-12-14T22:02:17.910Z,32.10
2018-12-14T22:04:45.260Z,31.80
2018-12-14T22:07:13.233Z,34.45
2018-12-14T22:09:40.647Z,30.88
2018-12-14T22:12:08.006Z,31.48
2018-12-14T22:14:35.342Z,33.95
2018-12-14T22:17:02.670Z,34.65
2018-12-14T22:19:30.025Z,33.38
2018-12-14T22:22:13.962Z,32.40
2018-12-14T22:27:14.824Z,29.32
2018-12-14T22:29:46.655Z,31.23
2018-12-14T22:32:14.024Z,30.57
2018-12-14T22:34:41.386Z,30.50
2018-12-14T22:37:08.775Z,30.00
2018-12-14T22:39:46.145Z,32.53
2018-12-14T22:42:13.432Z,28.77
2018-12-14T22:44:41.422Z,29.42
2018-12-14T22:47:08.799Z,29.95
2018-12-14T22:49:36.785Z,29.40
2018-12-14T22:52:05.175Z,28.42
2018-12-14T22:54:36.750Z,28.05
2018-12-14T22:57:04.177Z,30.08
2018-12-14T22:59:31.584Z,29.40
2018-12-14T23:01:59.112Z,26.30
2018-12-14T23:04:27.488Z,31.10
2018-12-14T23:07:02.958Z,27.77
2018-12-14T23:09:30.410Z,32.15
2018-12-14T23:12:02.629Z,29.52
2018-12-14T23:14:34.097Z,32.25
2018-12-14T23:17:01.640Z,32.08
2018-12-14T23:19:29.031Z,28.00
2018-12-14T23:21:56.368Z,29.27
2018-12-14T23:24:24.634Z,28.98
2018-12-14T23:26:51.965Z,34.43
2018-12-14T23:29:19.362Z,27.10
2018-12-14T23:31:46.731Z,31.20
2018-12-14T23:34:14.058Z,28.47
2018-12-14T23:36:41.413Z,27.37
2018-12-14T23:39:08.695Z,30.17
2018-12-14T23:41:36.081Z,31.55
2018-12-14T23:44:03.911Z,28.38
2018-12-14T23:46:31.249Z,29.80
2018-12-14T23:48:58.548Z,30.40
2018-12-14T23:51:25.927Z,28.98
2018-12-14T23:53:53.276Z,28.50
2018-12-14T23:56:20.629Z,32.98
2018-12-14T23:58:48.042Z,32.85
